Aeroporto :
LOGIN :

Iscrizione | Disclaimer

   EN    FR    IT 

 










Sommario :    VFR   VFR Marginale   IFR   IFR Intensivo   IFR Molto Intensivo
Visibilità : 
Base nubi : 
>= 8 km
>= 3000ft
5 / 8 km
1000 / 3000 ft
1500m / 5 km
500 / 1000 ft
800 / 1500m
200 / 500 ft
< 800m
< 200 ft
Simboli :   Temporali  Nebbia  Neve Forte  Precipitazioni Forti  Vento > 20 kt
SIGMETs :   Varie  Temporali  Ghiacco  Turbolenza  Onda orograficha  Ceneri Vulcaniche






- Altitudine del aeroporto : 17 ft
- Codice IATA : MHQ


EFMA - Mariehamn

ULTIMO METAR :
  • 112350Z AUTO 19012KT 9999 -RA OVC005 05/04 Q1003

METARs OBSOLETI :
  • 112320Z AUTO 19012KT 9999 -RA BKN006 OVC031 05/04 Q1003
  • 112250Z AUTO 20011KT 9999 -DZ OVC007 05/04 Q1003
  • 112220Z AUTO 20010KT 9999 OVC009 05/03 Q1004
  • 112150Z AUTO 20009KT 9999 OVC008 05/03 Q1004
  • 112120Z AUTO 21010KT 9999 OVC008 05/03 Q1004
  • 112050Z AUTO 21008KT 9999 OVC009 05/03 Q1004

TAF TAF EFMA
Valido dal 12 a 00 ore il 12 a 09 ore UTC


112332Z 1200/1209 21010KT 9999 -RA OVC010
TEMPO 1200/1206 7000 OVC005



MetMap, La meteo Aeronautica in un colpo d'occhio ! - Copyright ORBIFLY Dicembre 2007 - Disclaimer

ORBIFLY MET'MAP TEAM :

Programmazione e sviluppo : Alexandra Zaïnal
Concezione : Baudouin d'Aumeries
Aiuto per la programmazione : Marc-Olivier Méhu
Supporto tecnico e logistico : Manuel Goepfert
Aiuto per la traduzione : Arnaldo La Scala

Contatto : metmap@orbifly.com




FONTI E CREDITI :

   NOAA